CWI644 EDDV-LHBP
Flight info
| Callsign | CWI644 |
|---|---|
| Flight time | 1h 19m |
| Altitude | 35000 |
| Route | POVEL4S POVEL Z94 GALMA T703 TIPAM Z650 VEMUT DCT BUDEX DCT TOVKA DCT ANEXA |
| Aircraft | A320/M-SDE3FGHIRWY/LB1 |
Departure
| Time | 2026-05-03 21:45 |
|---|---|
| Airport | Hannover Airport (EDDV) |
Arrival
| Time | 2026-05-03 23:04 |
|---|---|
| Airport | Budapest Liszt Ferenc International Airport (LHBP) |
| Time | Latitude | Longitude | Altitude | Speed | Heading |
|---|---|---|---|---|---|
| 2026-05-03 21:08 | 52.45765 | 9.69569 | 179 ft | 0 kts | 52° |
| 2026-05-03 21:33 | 52.45761 | 9.69562 | 178 ft | 3 kts | 52° |
| 2026-05-03 21:34 | 52.45747 | 9.69533 | 178 ft | 3 kts | 52° |
| 2026-05-03 21:34 | 52.45736 | 9.69509 | 178 ft | 3 kts | 47° |
| 2026-05-03 21:34 | 52.45720 | 9.69489 | 178 ft | 3 kts | 4° |
| 2026-05-03 21:34 | 52.45702 | 9.69496 | 178 ft | 3 kts | 333° |
| 2026-05-03 21:35 | 52.45698 | 9.69500 | 178 ft | 0 kts | 332° |
| 2026-05-03 21:37 | 52.45702 | 9.69497 | 178 ft | 2 kts | 332° |
| 2026-05-03 21:37 | 52.45717 | 9.69484 | 178 ft | 3 kts | 332° |
| 2026-05-03 21:37 | 52.45731 | 9.69470 | 178 ft | 2 kts | 329° |
| 2026-05-03 21:37 | 52.45744 | 9.69448 | 178 ft | 4 kts | 306° |
| 2026-05-03 21:38 | 52.45755 | 9.69398 | 178 ft | 6 kts | 283° |
| 2026-05-03 21:38 | 52.45758 | 9.69353 | 178 ft | 4 kts | 274° |
| 2026-05-03 21:38 | 52.45760 | 9.69300 | 178 ft | 6 kts | 276° |
| 2026-05-03 21:38 | 52.45784 | 9.69235 | 178 ft | 8 kts | 319° |
| 2026-05-03 21:39 | 52.45817 | 9.69194 | 178 ft | 5 kts | 322° |
| 2026-05-03 21:39 | 52.45851 | 9.69150 | 178 ft | 7 kts | 322° |
| 2026-05-03 21:39 | 52.45896 | 9.69094 | 178 ft | 9 kts | 323° |
| 2026-05-03 21:39 | 52.45948 | 9.69031 | 178 ft | 9 kts | 323° |
| 2026-05-03 21:40 | 52.45999 | 9.68969 | 178 ft | 10 kts | 323° |
| 2026-05-03 21:40 | 52.46060 | 9.68894 | 178 ft | 11 kts | 323° |
| 2026-05-03 21:40 | 52.46114 | 9.68826 | 178 ft | 10 kts | 322° |
| 2026-05-03 21:40 | 52.46173 | 9.68752 | 178 ft | 12 kts | 322° |
| 2026-05-03 21:41 | 52.46199 | 9.68720 | 178 ft | 1 kts | 331° |
| 2026-05-03 21:41 | 52.46220 | 9.68726 | 178 ft | 7 kts | 28° |
| 2026-05-03 21:41 | 52.46254 | 9.68795 | 178 ft | 9 kts | 60° |
| 2026-05-03 21:41 | 52.46279 | 9.68893 | 178 ft | 10 kts | 68° |
| 2026-05-03 21:42 | 52.46307 | 9.69006 | 178 ft | 12 kts | 68° |
| 2026-05-03 21:42 | 52.46338 | 9.69137 | 178 ft | 13 kts | 68° |
| 2026-05-03 21:42 | 52.46374 | 9.69284 | 178 ft | 15 kts | 68° |
| 2026-05-03 21:42 | 52.46413 | 9.69447 | 179 ft | 16 kts | 68° |
| 2026-05-03 21:43 | 52.46455 | 9.69623 | 178 ft | 18 kts | 69° |
| 2026-05-03 21:43 | 52.46498 | 9.69803 | 178 ft | 16 kts | 69° |
| 2026-05-03 21:43 | 52.46553 | 9.69928 | 177 ft | 14 kts | 29° |
| 2026-05-03 21:43 | 52.46657 | 9.69949 | 176 ft | 13 kts | 357° |
| 2026-05-03 21:44 | 52.46699 | 9.69860 | 175 ft | 0 kts | 273° |
| 2026-05-03 21:44 | 52.46699 | 9.69852 | 175 ft | 4 kts | 272° |
| 2026-05-03 21:44 | 52.46704 | 9.69472 | 176 ft | 68 kts | 272° |
| 2026-05-03 21:44 | 52.46734 | 9.68362 | 176 ft | 123 kts | 272° |
| 2026-05-03 21:45 | 52.46775 | 9.66724 | 224 ft | 159 kts | 272° |
| 2026-05-03 21:45 | 52.46808 | 9.64875 | 758 ft | 165 kts | 268° |
| 2026-05-03 21:45 | 52.46791 | 9.62982 | 1404 ft | 167 kts | 265° |
| 2026-05-03 21:45 | 52.46730 | 9.61097 | 2071 ft | 165 kts | 265° |
| 2026-05-03 21:46 | 52.46727 | 9.59121 | 2411 ft | 183 kts | 269° |
| 2026-05-03 21:46 | 52.46758 | 9.56957 | 2855 ft | 194 kts | 268° |
| 2026-05-03 21:46 | 52.46444 | 9.54846 | 3448 ft | 197 kts | 239° |
| 2026-05-03 21:46 | 52.45443 | 9.53301 | 4151 ft | 203 kts | 213° |
| 2026-05-03 21:47 | 52.44210 | 9.52143 | 4921 ft | 204 kts | 213° |
| 2026-05-03 21:47 | 52.42973 | 9.50973 | 5688 ft | 206 kts | 213° |
| 2026-05-03 21:47 | 52.41727 | 9.49791 | 6451 ft | 208 kts | 213° |
| 2026-05-03 21:47 | 52.40465 | 9.48593 | 7155 ft | 211 kts | 213° |
| 2026-05-03 21:48 | 52.39183 | 9.47381 | 7851 ft | 215 kts | 212° |
| 2026-05-03 21:48 | 52.37866 | 9.46178 | 8545 ft | 219 kts | 206° |
| 2026-05-03 21:48 | 52.36340 | 9.45859 | 9213 ft | 232 kts | 172° |
| 2026-05-03 21:48 | 52.34869 | 9.47143 | 9679 ft | 259 kts | 136° |
| 2026-05-03 21:49 | 52.33850 | 9.49763 | 9947 ft | 288 kts | 118° |
| 2026-05-03 21:49 | 52.33058 | 9.52893 | 10247 ft | 309 kts | 113° |
| 2026-05-03 21:49 | 52.32339 | 9.56297 | 10424 ft | 333 kts | 111° |
| 2026-05-03 21:49 | 52.31587 | 9.60015 | 10551 ft | 356 kts | 111° |
| 2026-05-03 21:50 | 52.30769 | 9.63952 | 10689 ft | 375 kts | 112° |
| 2026-05-03 21:50 | 52.29883 | 9.68021 | 11165 ft | 383 kts | 113° |
| 2026-05-03 21:50 | 52.28951 | 9.72134 | 11749 ft | 387 kts | 114° |
| 2026-05-03 21:50 | 52.27988 | 9.76255 | 12357 ft | 391 kts | 114° |
| 2026-05-03 21:51 | 52.26998 | 9.80412 | 12970 ft | 394 kts | 115° |
| 2026-05-03 21:51 | 52.25998 | 9.84594 | 13577 ft | 397 kts | 115° |
| 2026-05-03 21:51 | 52.25053 | 9.88855 | 14127 ft | 403 kts | 108° |
| 2026-05-03 21:51 | 52.24448 | 9.93348 | 14639 ft | 407 kts | 105° |
| 2026-05-03 21:52 | 52.23874 | 9.97901 | 15158 ft | 410 kts | 105° |
| 2026-05-03 21:52 | 52.23298 | 10.02483 | 15654 ft | 414 kts | 105° |
| 2026-05-03 21:52 | 52.22718 | 10.07109 | 16150 ft | 418 kts | 105° |
| 2026-05-03 21:52 | 52.22131 | 10.11763 | 16627 ft | 421 kts | 105° |
| 2026-05-03 21:53 | 52.21538 | 10.16409 | 17123 ft | 425 kts | 105° |
| 2026-05-03 21:53 | 52.20929 | 10.21139 | 17628 ft | 429 kts | 105° |
| 2026-05-03 21:53 | 52.20311 | 10.25925 | 18121 ft | 433 kts | 105° |
| 2026-05-03 21:53 | 52.19687 | 10.30744 | 18578 ft | 436 kts | 105° |
| 2026-05-03 21:54 | 52.19058 | 10.35589 | 19030 ft | 439 kts | 105° |
| 2026-05-03 21:54 | 52.18424 | 10.40464 | 19498 ft | 441 kts | 105° |
| 2026-05-03 21:54 | 52.17788 | 10.45353 | 20025 ft | 441 kts | 105° |
| 2026-05-03 21:54 | 52.17150 | 10.50257 | 20505 ft | 443 kts | 105° |
| 2026-05-03 21:55 | 52.16504 | 10.55180 | 20955 ft | 445 kts | 105° |
| 2026-05-03 21:55 | 52.15850 | 10.60122 | 21386 ft | 448 kts | 106° |
| 2026-05-03 21:55 | 52.15190 | 10.65090 | 21785 ft | 450 kts | 106° |
| 2026-05-03 21:55 | 52.14524 | 10.70083 | 22176 ft | 452 kts | 107° |
| 2026-05-03 21:56 | 52.13561 | 10.74923 | 22558 ft | 448 kts | 117° |
| 2026-05-03 21:56 | 52.12099 | 10.79379 | 22947 ft | 444 kts | 128° |
| 2026-05-03 21:56 | 52.10200 | 10.83308 | 23331 ft | 440 kts | 138° |
| 2026-05-03 21:56 | 52.07940 | 10.86628 | 23645 ft | 437 kts | 147° |
| 2026-05-03 21:57 | 52.05386 | 10.89264 | 23882 ft | 435 kts | 156° |
| 2026-05-03 21:57 | 52.02696 | 10.91573 | 24182 ft | 438 kts | 156° |
| 2026-05-03 21:57 | 52.00028 | 10.93865 | 24483 ft | 440 kts | 156° |
| 2026-05-03 21:57 | 51.97322 | 10.96194 | 24808 ft | 442 kts | 156° |
| 2026-05-03 21:58 | 51.94604 | 10.98542 | 25137 ft | 443 kts | 156° |
| 2026-05-03 21:58 | 51.91886 | 11.00887 | 25509 ft | 443 kts | 156° |
| 2026-05-03 21:58 | 51.89169 | 11.03224 | 25983 ft | 441 kts | 156° |
| 2026-05-03 21:58 | 51.86464 | 11.05547 | 26465 ft | 439 kts | 156° |
| 2026-05-03 21:59 | 51.83769 | 11.07859 | 26958 ft | 437 kts | 156° |
| 2026-05-03 21:59 | 51.81088 | 11.10157 | 27451 ft | 435 kts | 156° |
| 2026-05-03 21:59 | 51.78416 | 11.12443 | 27940 ft | 434 kts | 156° |
| 2026-05-03 21:59 | 51.75753 | 11.14714 | 28437 ft | 432 kts | 156° |
| 2026-05-03 22:00 | 51.73101 | 11.16973 | 28911 ft | 430 kts | 156° |
| 2026-05-03 22:00 | 51.70453 | 11.19227 | 29390 ft | 429 kts | 156° |
| 2026-05-03 22:00 | 51.67815 | 11.21469 | 29818 ft | 429 kts | 156° |
| 2026-05-03 22:00 | 51.65177 | 11.23706 | 30241 ft | 428 kts | 156° |
| 2026-05-03 22:01 | 51.62547 | 11.25938 | 30647 ft | 427 kts | 156° |
| 2026-05-03 22:01 | 51.59920 | 11.28170 | 31063 ft | 426 kts | 156° |
| 2026-05-03 22:01 | 51.57304 | 11.30386 | 31476 ft | 425 kts | 156° |
| 2026-05-03 22:01 | 51.54727 | 11.32563 | 31901 ft | 423 kts | 156° |
| 2026-05-03 22:02 | 51.52127 | 11.34755 | 32344 ft | 422 kts | 156° |
| 2026-05-03 22:02 | 51.49529 | 11.36943 | 32781 ft | 420 kts | 156° |
| 2026-05-03 22:02 | 51.46948 | 11.39112 | 33194 ft | 419 kts | 156° |
| 2026-05-03 22:02 | 51.44367 | 11.41279 | 33633 ft | 418 kts | 156° |
| 2026-05-03 22:03 | 51.41797 | 11.43437 | 34046 ft | 416 kts | 156° |
| 2026-05-03 22:03 | 51.39233 | 11.45588 | 34381 ft | 415 kts | 156° |
| 2026-05-03 22:03 | 51.36673 | 11.47733 | 34668 ft | 416 kts | 156° |
| 2026-05-03 22:03 | 51.34108 | 11.49871 | 34906 ft | 417 kts | 156° |
| 2026-05-03 22:04 | 51.28897 | 11.54181 | 34970 ft | 428 kts | 156° |
| 2026-05-03 22:04 | 51.23545 | 11.58612 | 34972 ft | 436 kts | 156° |
| 2026-05-03 22:05 | 51.18143 | 11.63086 | 34975 ft | 437 kts | 156° |
| 2026-05-03 22:05 | 51.12605 | 11.66980 | 34972 ft | 432 kts | 168° |
| 2026-05-03 22:06 | 51.06745 | 11.68172 | 34973 ft | 427 kts | 181° |
| 2026-05-03 22:06 | 51.00796 | 11.68488 | 34981 ft | 428 kts | 180° |
| 2026-05-03 22:07 | 50.94842 | 11.68840 | 34985 ft | 428 kts | 180° |
| 2026-05-03 22:07 | 50.88897 | 11.69173 | 34988 ft | 428 kts | 180° |
| 2026-05-03 22:08 | 50.82940 | 11.69497 | 34995 ft | 428 kts | 180° |
| 2026-05-03 22:08 | 50.76987 | 11.69827 | 35007 ft | 428 kts | 180° |
| 2026-05-03 22:09 | 50.71050 | 11.70379 | 35001 ft | 430 kts | 173° |
| 2026-05-03 22:10 | 50.62437 | 11.74482 | 34981 ft | 434 kts | 164° |
| 2026-05-03 22:10 | 50.56689 | 11.77465 | 34990 ft | 435 kts | 164° |
| 2026-05-03 22:11 | 50.50927 | 11.80433 | 35007 ft | 436 kts | 165° |
| 2026-05-03 22:11 | 50.45188 | 11.83579 | 35018 ft | 438 kts | 159° |
| 2026-05-03 22:12 | 50.40533 | 11.86746 | 35028 ft | 439 kts | 159° |
| 2026-05-03 22:12 | 50.34931 | 11.90544 | 35037 ft | 439 kts | 159° |
| 2026-05-03 22:13 | 50.29320 | 11.94330 | 35039 ft | 439 kts | 159° |
| 2026-05-03 22:13 | 50.23700 | 11.98113 | 35036 ft | 439 kts | 160° |
| 2026-05-03 22:14 | 50.18086 | 12.01889 | 35012 ft | 439 kts | 159° |
| 2026-05-03 22:14 | 50.12492 | 12.05635 | 35001 ft | 441 kts | 159° |
| 2026-05-03 22:15 | 50.06849 | 12.09398 | 34997 ft | 442 kts | 159° |
| 2026-05-03 22:15 | 50.01203 | 12.13175 | 34986 ft | 442 kts | 159° |
| 2026-05-03 22:16 | 49.95544 | 12.16940 | 34990 ft | 443 kts | 159° |
| 2026-05-03 22:16 | 49.89898 | 12.20781 | 34995 ft | 444 kts | 154° |
| 2026-05-03 22:16 | 49.87317 | 12.23440 | 34999 ft | 448 kts | 142° |
| 2026-05-03 22:17 | 49.85115 | 12.26868 | 35000 ft | 452 kts | 131° |
| 2026-05-03 22:17 | 49.83383 | 12.30944 | 34999 ft | 456 kts | 119° |
| 2026-05-03 22:17 | 49.82206 | 12.35518 | 34988 ft | 460 kts | 107° |
| 2026-05-03 22:18 | 49.80803 | 12.45193 | 34975 ft | 459 kts | 113° |
| 2026-05-03 22:18 | 49.77694 | 12.53707 | 34975 ft | 454 kts | 128° |
| 2026-05-03 22:19 | 49.74058 | 12.61713 | 34972 ft | 455 kts | 127° |
| 2026-05-03 22:19 | 49.70485 | 12.69803 | 34963 ft | 456 kts | 127° |
| 2026-05-03 22:20 | 49.66891 | 12.77901 | 34954 ft | 457 kts | 127° |
| 2026-05-03 22:20 | 49.63262 | 12.85975 | 34960 ft | 458 kts | 127° |
| 2026-05-03 22:21 | 49.59607 | 12.94034 | 34963 ft | 459 kts | 127° |
| 2026-05-03 22:21 | 49.55976 | 13.02054 | 34980 ft | 459 kts | 127° |
| 2026-05-03 22:22 | 49.52317 | 13.10117 | 34980 ft | 459 kts | 127° |
| 2026-05-03 22:22 | 49.48642 | 13.18181 | 34985 ft | 459 kts | 128° |
| 2026-05-03 22:23 | 49.44965 | 13.26220 | 34985 ft | 459 kts | 128° |
| 2026-05-03 22:23 | 49.41308 | 13.34198 | 34983 ft | 459 kts | 128° |
| 2026-05-03 22:24 | 49.37628 | 13.42218 | 34981 ft | 459 kts | 128° |
| 2026-05-03 22:24 | 49.33940 | 13.50219 | 34977 ft | 459 kts | 127° |
| 2026-05-03 22:25 | 49.30249 | 13.58206 | 34979 ft | 459 kts | 127° |
| 2026-05-03 22:25 | 49.26547 | 13.66197 | 34982 ft | 459 kts | 127° |
| 2026-05-03 22:26 | 49.22830 | 13.74172 | 34981 ft | 459 kts | 128° |
| 2026-05-03 22:26 | 49.19115 | 13.82126 | 34988 ft | 460 kts | 128° |
| 2026-05-03 22:27 | 49.15394 | 13.90073 | 34985 ft | 460 kts | 127° |
| 2026-05-03 22:27 | 49.11668 | 13.98012 | 34983 ft | 460 kts | 127° |
| 2026-05-03 22:28 | 49.07938 | 14.05941 | 34989 ft | 459 kts | 127° |
| 2026-05-03 22:28 | 49.04213 | 14.13845 | 34993 ft | 459 kts | 127° |
| 2026-05-03 22:29 | 49.00503 | 14.21689 | 34984 ft | 459 kts | 127° |
| 2026-05-03 22:29 | 48.96737 | 14.29610 | 34987 ft | 459 kts | 127° |
| 2026-05-03 22:30 | 48.93708 | 14.38076 | 34990 ft | 460 kts | 111° |
| 2026-05-03 22:30 | 48.91467 | 14.47187 | 34990 ft | 460 kts | 111° |
| 2026-05-03 22:31 | 48.89201 | 14.56302 | 34991 ft | 461 kts | 111° |
| 2026-05-03 22:31 | 48.86925 | 14.65400 | 34982 ft | 461 kts | 111° |
| 2026-05-03 22:32 | 48.84630 | 14.74497 | 34983 ft | 461 kts | 111° |
| 2026-05-03 22:32 | 48.82332 | 14.83594 | 34981 ft | 462 kts | 111° |
| 2026-05-03 22:33 | 48.80035 | 14.92694 | 34988 ft | 462 kts | 111° |
| 2026-05-03 22:33 | 48.77724 | 15.01795 | 35002 ft | 462 kts | 111° |
| 2026-05-03 22:34 | 48.75400 | 15.10884 | 35003 ft | 463 kts | 111° |
| 2026-05-03 22:34 | 48.73078 | 15.19924 | 35012 ft | 463 kts | 111° |
| 2026-05-03 22:35 | 48.70738 | 15.29020 | 35018 ft | 464 kts | 111° |
| 2026-05-03 22:35 | 48.68393 | 15.38106 | 35023 ft | 464 kts | 111° |
| 2026-05-03 22:36 | 48.66032 | 15.47205 | 35026 ft | 464 kts | 110° |
| 2026-05-03 22:36 | 48.63664 | 15.56284 | 35022 ft | 464 kts | 110° |
| 2026-05-03 22:37 | 48.61294 | 15.65348 | 35021 ft | 464 kts | 111° |
| 2026-05-03 22:37 | 48.58916 | 15.74407 | 35021 ft | 464 kts | 111° |
| 2026-05-03 22:38 | 48.56526 | 15.83465 | 35025 ft | 464 kts | 110° |
| 2026-05-03 22:38 | 48.54137 | 15.92510 | 35025 ft | 464 kts | 111° |
| 2026-05-03 22:39 | 48.51752 | 16.01488 | 35030 ft | 464 kts | 111° |
| 2026-05-03 22:39 | 48.49344 | 16.10509 | 35038 ft | 464 kts | 111° |
| 2026-05-03 22:40 | 48.46933 | 16.19536 | 35038 ft | 464 kts | 110° |
| 2026-05-03 22:40 | 48.44510 | 16.28542 | 35042 ft | 464 kts | 110° |
| 2026-05-03 22:41 | 48.42080 | 16.37551 | 35045 ft | 464 kts | 111° |
| 2026-05-03 22:41 | 48.39647 | 16.46551 | 35052 ft | 464 kts | 110° |
| 2026-05-03 22:42 | 48.37197 | 16.55551 | 35060 ft | 464 kts | 111° |
| 2026-05-03 22:42 | 48.34746 | 16.64521 | 35073 ft | 464 kts | 111° |
| 2026-05-03 22:43 | 48.32292 | 16.73498 | 35084 ft | 464 kts | 111° |
| 2026-05-03 22:43 | 48.29846 | 16.82396 | 35086 ft | 463 kts | 111° |
| 2026-05-03 22:44 | 48.27386 | 16.91328 | 35100 ft | 463 kts | 111° |
| 2026-05-03 22:44 | 48.24971 | 17.00309 | 35091 ft | 463 kts | 109° |
| 2026-05-03 22:45 | 48.22667 | 17.09333 | 35077 ft | 463 kts | 109° |
| 2026-05-03 22:45 | 48.21519 | 17.13845 | 34841 ft | 463 kts | 109° |
| 2026-05-03 22:45 | 48.20363 | 17.18356 | 34595 ft | 463 kts | 109° |
| 2026-05-03 22:45 | 48.19198 | 17.22862 | 34350 ft | 464 kts | 109° |
| 2026-05-03 22:46 | 48.18024 | 17.27360 | 34100 ft | 464 kts | 109° |
| 2026-05-03 22:46 | 48.16829 | 17.31872 | 33249 ft | 468 kts | 110° |
| 2026-05-03 22:46 | 48.15571 | 17.36372 | 32378 ft | 471 kts | 111° |
| 2026-05-03 22:46 | 48.14251 | 17.40887 | 31410 ft | 476 kts | 112° |
| 2026-05-03 22:47 | 48.12886 | 17.45428 | 30514 ft | 478 kts | 113° |
| 2026-05-03 22:47 | 48.11523 | 17.49924 | 29410 ft | 483 kts | 113° |
| 2026-05-03 22:47 | 48.10137 | 17.54518 | 28362 ft | 485 kts | 113° |
| 2026-05-03 22:47 | 48.08755 | 17.59132 | 27281 ft | 487 kts | 113° |
| 2026-05-03 22:48 | 48.07376 | 17.63760 | 26123 ft | 490 kts | 113° |
| 2026-05-03 22:48 | 48.06003 | 17.68389 | 25061 ft | 482 kts | 113° |
| 2026-05-03 22:48 | 48.04639 | 17.73000 | 23351 ft | 492 kts | 112° |
| 2026-05-03 22:48 | 48.03268 | 17.77636 | 22684 ft | 481 kts | 113° |
| 2026-05-03 22:49 | 48.01935 | 17.82134 | 22293 ft | 464 kts | 113° |
| 2026-05-03 22:49 | 48.00638 | 17.86490 | 21101 ft | 453 kts | 113° |
| 2026-05-03 22:49 | 47.99346 | 17.90796 | 19739 ft | 454 kts | 114° |
| 2026-05-03 22:49 | 47.98076 | 17.95009 | 19027 ft | 434 kts | 114° |
| 2026-05-03 22:50 | 47.96865 | 17.99020 | 18188 ft | 416 kts | 114° |
| 2026-05-03 22:50 | 47.95695 | 18.02888 | 17362 ft | 402 kts | 114° |
| 2026-05-03 22:50 | 47.94547 | 18.06686 | 16585 ft | 402 kts | 114° |
| 2026-05-03 22:50 | 47.93418 | 18.10418 | 15832 ft | 398 kts | 114° |
| 2026-05-03 22:51 | 47.92286 | 18.14161 | 15087 ft | 395 kts | 114° |
| 2026-05-03 22:51 | 47.91155 | 18.17900 | 14360 ft | 395 kts | 114° |
| 2026-05-03 22:51 | 47.90025 | 18.21635 | 13617 ft | 394 kts | 114° |
| 2026-05-03 22:51 | 47.88903 | 18.25344 | 12931 ft | 391 kts | 114° |
| 2026-05-03 22:52 | 47.87788 | 18.29013 | 12256 ft | 387 kts | 114° |
| 2026-05-03 22:52 | 47.86683 | 18.32645 | 11604 ft | 382 kts | 114° |
| 2026-05-03 22:52 | 47.85606 | 18.36182 | 11366 ft | 367 kts | 114° |
| 2026-05-03 22:52 | 47.84572 | 18.39565 | 11248 ft | 350 kts | 114° |
| 2026-05-03 22:53 | 47.83586 | 18.42788 | 11128 ft | 335 kts | 114° |
| 2026-05-03 22:53 | 47.82636 | 18.45885 | 11007 ft | 323 kts | 114° |
| 2026-05-03 22:53 | 47.81720 | 18.48870 | 10886 ft | 311 kts | 114° |
| 2026-05-03 22:53 | 47.80838 | 18.51746 | 10764 ft | 301 kts | 114° |
| 2026-05-03 22:54 | 47.79978 | 18.54540 | 10561 ft | 294 kts | 114° |
| 2026-05-03 22:54 | 47.79131 | 18.57283 | 10398 ft | 289 kts | 114° |
| 2026-05-03 22:54 | 47.78294 | 18.59996 | 10263 ft | 288 kts | 114° |
| 2026-05-03 22:54 | 47.77460 | 18.62698 | 10139 ft | 288 kts | 114° |
| 2026-05-03 22:55 | 47.76623 | 18.65402 | 10001 ft | 287 kts | 114° |
| 2026-05-03 22:55 | 47.75783 | 18.68117 | 9547 ft | 293 kts | 114° |
| 2026-05-03 22:55 | 47.74934 | 18.70861 | 9265 ft | 289 kts | 114° |
| 2026-05-03 22:55 | 47.74102 | 18.73554 | 8843 ft | 285 kts | 115° |
| 2026-05-03 22:56 | 47.73092 | 18.76024 | 8201 ft | 283 kts | 129° |
| 2026-05-03 22:56 | 47.71773 | 18.78230 | 7607 ft | 281 kts | 132° |
| 2026-05-03 22:56 | 47.70484 | 18.80353 | 7057 ft | 278 kts | 132° |
| 2026-05-03 22:56 | 47.69234 | 18.82424 | 6887 ft | 261 kts | 132° |
| 2026-05-03 22:57 | 47.68036 | 18.84413 | 6674 ft | 256 kts | 132° |
| 2026-05-03 22:57 | 47.66837 | 18.86336 | 6555 ft | 260 kts | 134° |
| 2026-05-03 22:57 | 47.65565 | 18.88339 | 6389 ft | 270 kts | 133° |
| 2026-05-03 22:57 | 47.64305 | 18.90396 | 6059 ft | 267 kts | 133° |
| 2026-05-03 22:58 | 47.63085 | 18.92403 | 5707 ft | 256 kts | 133° |
| 2026-05-03 22:58 | 47.61912 | 18.94326 | 5387 ft | 247 kts | 133° |
| 2026-05-03 22:58 | 47.60776 | 18.96185 | 5069 ft | 239 kts | 133° |
| 2026-05-03 22:58 | 47.59682 | 18.97973 | 4756 ft | 230 kts | 134° |
| 2026-05-03 22:59 | 47.58624 | 18.99702 | 4450 ft | 223 kts | 134° |
| 2026-05-03 22:59 | 47.57609 | 19.01361 | 4152 ft | 210 kts | 134° |
| 2026-05-03 22:59 | 47.56653 | 19.02921 | 3882 ft | 200 kts | 134° |
| 2026-05-03 22:59 | 47.55747 | 19.04399 | 3648 ft | 187 kts | 135° |
| 2026-05-03 23:00 | 47.54906 | 19.05771 | 3398 ft | 174 kts | 135° |
| 2026-05-03 23:00 | 47.54118 | 19.07056 | 3160 ft | 163 kts | 136° |
| 2026-05-03 23:00 | 47.53622 | 19.07862 | 3032 ft | 155 kts | 136° |
| 2026-05-03 23:00 | 47.52710 | 19.09347 | 2767 ft | 142 kts | 136° |
| 2026-05-03 23:01 | 47.52054 | 19.10413 | 2572 ft | 139 kts | 136° |
| 2026-05-03 23:01 | 47.51410 | 19.11460 | 2397 ft | 137 kts | 136° |
| 2026-05-03 23:01 | 47.50769 | 19.12501 | 2209 ft | 138 kts | 136° |
| 2026-05-03 23:01 | 47.50125 | 19.13547 | 2023 ft | 137 kts | 136° |
| 2026-05-03 23:02 | 47.49692 | 19.14251 | 1902 ft | 136 kts | 136° |
| 2026-05-03 23:02 | 47.49062 | 19.15274 | 1719 ft | 136 kts | 136° |
| 2026-05-03 23:02 | 47.48424 | 19.16309 | 1533 ft | 136 kts | 136° |
| 2026-05-03 23:02 | 47.47783 | 19.17346 | 1330 ft | 137 kts | 135° |
| 2026-05-03 23:03 | 47.47131 | 19.18383 | 1118 ft | 138 kts | 134° |
| 2026-05-03 23:03 | 47.46492 | 19.19441 | 967 ft | 138 kts | 131° |
| 2026-05-03 23:03 | 47.45849 | 19.20501 | 794 ft | 138 kts | 132° |
| 2026-05-03 23:03 | 47.45202 | 19.21549 | 629 ft | 138 kts | 131° |
| 2026-05-03 23:04 | 47.44560 | 19.22600 | 467 ft | 137 kts | 131° |
| 2026-05-03 23:04 | 47.43998 | 19.23504 | 454 ft | 88 kts | 132° |
| 2026-05-03 23:04 | 47.43784 | 19.23850 | 455 ft | 20 kts | 131° |
| 2026-05-03 23:04 | 47.43711 | 19.24041 | 453 ft | 23 kts | 111° |
| 2026-05-03 23:05 | 47.43671 | 19.24269 | 456 ft | 22 kts | 104° |
| 2026-05-03 23:05 | 47.43612 | 19.24492 | 455 ft | 24 kts | 120° |
| 2026-05-03 23:05 | 47.43503 | 19.24694 | 457 ft | 24 kts | 133° |
| 2026-05-03 23:05 | 47.43397 | 19.24865 | 457 ft | 23 kts | 132° |
| 2026-05-03 23:06 | 47.43285 | 19.25046 | 457 ft | 21 kts | 133° |
| 2026-05-03 23:06 | 47.43236 | 19.25202 | 457 ft | 18 kts | 83° |
| 2026-05-03 23:06 | 47.43316 | 19.25351 | 457 ft | 16 kts | 43° |
| 2026-05-03 23:06 | 47.43316 | 19.25475 | 457 ft | 11 kts | 125° |
| 2026-05-03 23:07 | 47.43315 | 19.25589 | 457 ft | 13 kts | 52° |
| 2026-05-03 23:07 | 47.43391 | 19.25694 | 456 ft | 16 kts | 42° |
| 2026-05-03 23:07 | 47.43461 | 19.25789 | 457 ft | 13 kts | 43° |
| 2026-05-03 23:07 | 47.43520 | 19.25851 | 457 ft | 10 kts | 6° |
| 2026-05-03 23:08 | 47.43550 | 19.25822 | 457 ft | 2 kts | 314° |
| 2026-05-03 23:08 | 47.43555 | 19.25815 | 457 ft | 0 kts | 314° |